75  °F
Temperature
24  °C
Temperature
19  °C
 Dewpoint
66  °F
  Dewpoint
74  %
 Humidity
  Temperature
10  mph
Wind Speed
9  kts
Wind Speed
16  km/h
Wind Speed
4.5  m/s
Wind Speed
10°
Due North

Wind Speed
Clear
Conditions
Pressure 29.92 (inHG) - 1013.22 (mb)
Visibility 10.0 (mi) - 16.1 (km)

Sky Conditions
KPCW
Location Erie-Ottawa International 5 mi (8.05 km)
Metar :KPCW 221635Z AUTO 01009KT 10SM CLR 24/19 A2992 RMK AO2
Mon 22nd July 12:35 pm

Nearest Airport
https://www.checkwx.com/weather/KPCW
  Metar Aviation API Data Provided by https://www.checkwx.com/ Original CSS/SVG/PHP scripts by weather34.com © 2015-2019